Kcmh metar

Columbus (KCMH) - METARmaps™ - Aviation Sectional LED METAR Maps. Unauthorized request. ….

METAR KCMH 041851Z 12004KT 10SM SCT060 BKN250 29/15 A3007 RMK AO2 SLP175 T02940150. The wind is from direction 120° with a speed of 4 kt. Visibility is 10 mi. The ceiling, broken or more, is 25,000 ft. The temperature and wind chill are 29 °C.METAR KCMH 041451Z 15003KT 10SM FEW250 24/16 A3017 RMK AO2 SLP210 T02390156 50002. The wind is from direction 150° with a speed of 3 kt. Visibility is 10 mi. No ceiling has been observed. The temperature and wind chill are 24 °C. John Glenn Columbus International Airport

Did you know?

KCMH METAR Weather: KCMH 020251Z 19003KT 10SM FEW055 FEW250 22/15 A2996 RMK AO2 SLP139 T02170150 51014 KCMH Flight Activity (FlightAware) KCMH Webcam: KCMH Airport Info (iFlightPlanner) KCMH Del/Gnd/Twr: Feed Status: UP Listeners: 1 (in browser, HTML5) (launches your MP3 player)METAR KCMH 190551Z 14009KT 10SM OVC200 19/07 A2987 RMK AO2 SLP109 T01890072 10211 20167 56029. The wind is from direction 140° with a speed of 9 kt. Visibility is 10 mi. The ceiling, broken or more, is 20,000 ft. The temperature and wind chill are 19 °C.Disneyland in April is a great time of the year to visit Disneyland with warm weather, the Food & Wine Festival, and Easter themed fun! Save money, experience more. Check out our d...METAR Pitt Meadows Airport - CYPK. Pitt Meadows Airport is a midsized airport in British Columbia, Canada. The airport is located at latitude 49.21630 and longitude -122.71095. The airport has 3 runways: 8L/26R, 8R/26L and 18/36. The ICAO airport code of this field is CYPK.

Don't have an account yet? Sign up for free!. English . English Nederlands Español Deutsch Français Italiano Português Polski 中文 Nederlands Español Deutsch Français Italiano …kcmh. cmh atis info o 0851z. 02004kt 10sm few250 16/13 a2999 (two niner niner niner). ils, rwy 28l, ils, rwy 28r, simul apch in use. notams... twy c5, c6 clsd twy d5 clsd btwn twy d and twy c . twy c clsd btwn twy c4 and twy c6 ., taxiway charlie 7 charlie 8 and charlie 9 clsd to aircraft with wingspans greater than 118 feet.KCMH - John Glenn Columbus International Airport (11 nm N) KLHQ - Fairfield County Airport (13 nm E) KOSU - Ohio State University Airport (17 nm NW) ... METAR; KLCK : 251855Z AUTO 00000KT 10SM CLR 13/01 A3029 RMK AO2 T01300014 KTZR 10nm NW : 251845Z 36004KT 10SM CLR 13/01 A3030 KCMHAWC - Aviation Weather CenterApr 18, 2024 · METAR KCMH 182151Z 16006KT 10SM BKN250 23/09 A3001 RMK AO2 SLP160 T02280094. The wind is from direction 160° with a speed of 6 kt. Visibility is 10 mi. The ceiling, broken or more, is 25,000 ft. The temperature and wind chill are 23 °C.

KCMH METAR Weather: KCMH 272151Z 21011KT 10SM FEW060 SCT100 OVC200 24/13 A3013 RMK AO2 SLP197 T02440133 $ KCMH Flight Activity (FlightAware) KCMH Webcam: KCMH Airport Info (iFlightPlanner) KCMH ATIS #2: Feed Status: UP Listeners: 0 (in browser, HTML5) (launches your MP3 player) KCMH ATIS #2 Audio Archives: Facility:AWC - Aviation Weather Centermetars page. aviation weather center n o a a n a t i o n a l w e a t h e r s e r v i c e. home. awc home; ncep > ncep home; aviation (awc) climate (cpc) ... kcmh 121351z 24004kt 10sm few080 26/18 a3001 rmk ao2 slp154 t02560178 kcmh 121142z 1212/1312 20003kt p6sm few050 few250 fm121500 24007kt p6sm bkn060 bkn150 fm130000 20006kt p6sm sct050 bkn100. ….

Reader Q&A - also see RECOMMENDED ARTICLES & FAQs. Kcmh metar. Possible cause: Not clear kcmh metar.

Trader Joe's and Pepperidge Farm settled their lawsuit over the former's Milano-like cookies. By clicking "TRY IT", I agree to receive newsletters and promotions from Money and its...metars page. aviation weather center n o a a n a t i o n a l w e a t h e r s e r v i c e. home. awc home; ncep > ncep home; aviation (awc) climate (cpc) ... kcmh 121351z 24004kt 10sm few080 26/18 a3001 rmk ao2 slp154 t02560178 kcmh 121142z 1212/1312 20003kt p6sm few050 few250 fm121500 24007kt p6sm bkn060 bkn150 fm130000 20006kt p6sm sct050 bkn100.KIAD. IAD ATIS INFO I 0652Z. 16003KT 10SM CLR 14/12 A2996 (TWO NINER NINER SIX) RMK AO2 SLP144. ILS/VA APCH RWY 19C, RWY 19R. DEPG RWY 30. NOTAMS... RWY 1R/19L CLSD. TWY Z CLSD BTN TWY Z5 AND TWY Y8 ; TWY J AND TWY K CLSD SOUTH OF TWY F. BIRD ACTIVITY VICINITY ARPT. ... ADVS YOU HAVE INFO I.

METAR KCMH 022151Z 09004KT 10SM CLR 29/16 A3018 RMK AO2 SLP216 T02890156. The wind is from direction 090° with a speed of 4 kt. Visibility is 10 mi. ... KOSU - Ohio State University Airport (9.7 NM) METAR KLCK - Rickenbacker International Airport (11 NM) METAR TAF KTZR - Bolton Field (13 NM) METAR KLHQ - Fairfield County (18 …METAR KCMH 041151Z 00000KT 7SM FEW250 16/14 A3016 RMK AO2 SLP209 T01560144 10189 20150 53008. There is little or no wind from a variable direction. Visibility is 7 mi. No ceiling has been observed. The temperature and wind chill are 16 °C.METAR Corvallis Municipal Airport - KCVO/CVO. Corvallis Municipal Airport is a midsized airport in Oregon, United States. The airport is located at latitude 44.49753 and longitude -123.28811. The airport has 2 runways: 17/35 and 10/28.

project zomboid overweight METAR KCMH 190651Z 13008KT 10SM FEW080 FEW110 OVC200 18/07 A2983 RMK AO2 SLP097 T01830072. The wind is from direction 130° with a speed of 8 kt. Visibility is 10 mi. The ceiling, broken or more, is 20,000 ft. The temperature and wind chill are 18 °C.Trader Joe's and Pepperidge Farm settled their lawsuit over the former's Milano-like cookies. By clicking "TRY IT", I agree to receive newsletters and promotions from Money and its... intek 20 hp v twinwillowbrook cinemark METAR Charleston Air Force Base/International - KCHS/CHS. Charleston Air Force Base/International is a large airport in South Carolina, United States. The airport is located at latitude 32.89809 and longitude -80.04056. The airport has 2 runways: 3/21 and 15/33.1. Mountain waves always develop in a series on the upwind (windward) side of mountain ridges. 2. In a mountain wave, the air dips sharply downward immediately to the lee side of a ridge, before rising and falling in a wave motion for a considerable distance downstream. 3. bert kreischer young METAR KCMH 180151Z 30008KT 10SM SCT075 18/11 A2989 RMK AO2 SLP119 T01780106 $. The wind is from direction 300° with a speed of 8 kt. Visibility is 10 mi. No ceiling has been observed. The temperature and wind chill are 18 °C. paycheck calculator omahaemphasis roll dndhow to set fios tv remote Aviation Weather Center bad bunny song lyrics in english KCMH METAR Weather: KCMH 271351Z 19015G22KT 10SM FEW060 BKN160 BKN250 21/12 A3014 RMK AO2 SLP203 T02060122 KCMH Flight Activity (FlightAware) KCMH Webcam: KCMH Airport Info (iFlightPlanner) KCMH App/Dep (125.95) Feed Status: UP Listeners: 0 (in browser, HTML5) (launches your MP3 player)METAR KABC 121755Z AUTO 21016G24KT 180V240 1SM R11/P6000FT - RA BR BKN015 OVC025 06/04 A2990 RMK AO2 PK WND 20032/25 WSHFT 1715 VIS 3/4V1 1/2 VIS 3/4 RWY11 RAB07 CIG 013V017 CIG 017 RWY11 PRESFR SLP125 P0003 600 09 T00640036 10066 21012 58033 TSNO $ TYPE OF REPORT METAR: hourly (scheduled) report; SPECI: special (unscheduled) report. METAR amc movie theater plainville connecticutcateye silverado loweredbomb drone cod KCMH METAR Weather: KCMH 020651Z 00000KT 10SM SCT250 17/14 A2997 RMK AO2 SLP144 T01670144 KCMH Flight Activity (FlightAware) KCMH Webcam: KCMH Airport Info (iFlightPlanner) KCMH App/Dep (134.0) Feed Status: UP Listeners: 1 (in browser, HTML5) (launches your MP3 player) KCMH App/Dep (134.0) Audio Archives:880 FTUS41 KILN 020523 TAFCMH TAF KCMH 020523Z 0206/0306 VRB03KT P6SM SCT250 FM021500 18006KT P6SM SCT040 FM030100 VRB03KT P6SM SCT250= US Dept of Commerce; National Oceanic and Atmospheric Administration; National Weather Service; 1325 East West Highway; Silver Spring, MD 20910; Comments? Questions? …